Gdf Suez North Sea — HPSQ — position and weather

sailwx.info

Track history (hours):
 
Tides and Currents Weather Stations Pressure Air Temp Water Temp Dewpoint Dewpoint Depression Visibility Wind Speed Wind Dir Waves Ship Positions

Gdf Suez North Sea

Last reported at 2014-Sep-29 09:34 UTC. Time now 2014-Oct-01 08:15 UTC.
Position N 01°15' E 104°01'.

Length 190 m; draft 12.7 m.

Type: Ship. MMSI: 373341000.

Date/timePositionNaut miles runAvg speedWind from/ knotsBaromVisibWave heightAir tempDewpointWater temp
2014-Sep-29 09:34N 01°15' E 104°01'3 1.9
2014-Sep-29 08:15N 01°17' E 103°60'0 0.2
2014-Sep-29 07:09N 01°17' E 103°60'0 0.0
2014-Sep-29 06:27N 01°17' E 103°60'0 0.0
2014-Sep-29 04:30N 01°17' E 103°60'0 0.0
2014-Sep-29 03:30N 01°17' E 103°60'0 0.0
2014-Sep-29 02:30N 01°17' E 103°60'0 0.0
2014-Sep-29 01:30N 01°17' E 103°60'0 0.0
2014-Sep-29 00:30N 01°17' E 103°60'0 0.0
2014-Sep-28 23:33N 01°17' E 103°60'0 0.0
2014-Sep-28 22:30N 01°17' E 103°60'0 0.0
2014-Sep-28 21:33N 01°17' E 103°60'0 0.0
2014-Sep-28 20:33N 01°17' E 103°60'3 2.6
2014-Sep-28 19:33N 01°16' E 103°57'5 4.9
2014-Sep-28 18:33N 01°12' E 103°54'7 7.2
2014-Sep-28 17:33N 01°09' E 103°47'7 6.6
2014-Sep-28 16:33N 01°05' E 103°43'6 6.0
2014-Sep-28 15:33N 01°04' E 103°37'7 7.1
2014-Sep-28 14:33N 01°08' E 103°31'8 7.8
2014-Sep-28 13:33N 01°12' E 103°24'  
Track history (hours):
 
Tides and Currents Weather Stations Pressure Air Temp Water Temp Dewpoint Dewpoint Depression Visibility Wind Speed Wind Dir Waves Ship Positions

Gdf Suez North Sea

Last reported at 2014-Sep-29 09:34 UTC. Time now 2014-Oct-01 08:15 UTC.
Position N 01°15' E 104°01'.

Length 190 m; draft 12.7 m.

Type: Ship. MMSI: 373341000.

Date/timePositionNaut miles runAvg speedWind from/ knotsBaromVisibWave heightAir tempDewpointWater temp
2014-Sep-29 09:34N 01°15' E 104°01'3 1.9
2014-Sep-29 08:15N 01°17' E 103°60'0 0.2
2014-Sep-29 07:09N 01°17' E 103°60'0 0.0
2014-Sep-29 06:27N 01°17' E 103°60'0 0.0
2014-Sep-29 04:30N 01°17' E 103°60'0 0.0
2014-Sep-29 03:30N 01°17' E 103°60'0 0.0
2014-Sep-29 02:30N 01°17' E 103°60'0 0.0
2014-Sep-29 01:30N 01°17' E 103°60'0 0.0
2014-Sep-29 00:30N 01°17' E 103°60'0 0.0
2014-Sep-28 23:33N 01°17' E 103°60'0 0.0
2014-Sep-28 22:30N 01°17' E 103°60'0 0.0
2014-Sep-28 21:33N 01°17' E 103°60'0 0.0
2014-Sep-28 20:33N 01°17' E 103°60'3 2.6
2014-Sep-28 19:33N 01°16' E 103°57'5 4.9
2014-Sep-28 18:33N 01°12' E 103°54'7 7.2
2014-Sep-28 17:33N 01°09' E 103°47'7 6.6
2014-Sep-28 16:33N 01°05' E 103°43'6 6.0
2014-Sep-28 15:33N 01°04' E 103°37'7 7.1
2014-Sep-28 14:33N 01°08' E 103°31'8 7.8
2014-Sep-28 13:33N 01°12' E 103°24'  

Dump ship's entire track history